createdAt,value
2022-10-23T00:04:36.397Z,998
2022-10-23T00:33:53.211Z,998
2022-10-23T01:03:07.401Z,997
2022-10-23T01:32:27.980Z,997
2022-10-23T02:01:51.322Z,997
2022-10-23T02:30:51.652Z,997
2022-10-23T03:00:14.115Z,996
2022-10-23T03:29:40.758Z,996
2022-10-23T03:59:04.806Z,996
2022-10-23T04:28:22.781Z,996
2022-10-23T04:57:41.640Z,996
2022-10-23T05:27:00.297Z,996
2022-10-23T05:56:21.385Z,996
2022-10-23T06:25:43.291Z,996
2022-10-23T06:55:03.196Z,996
2022-10-23T07:24:12.791Z,996
2022-10-23T07:53:34.652Z,996
2022-10-23T08:22:42.644Z,996
2022-10-23T08:51:59.325Z,995
2022-10-23T09:21:08.915Z,995
2022-10-23T09:50:26.346Z,995
2022-10-23T10:19:39.853Z,995
2022-10-23T10:48:56.998Z,995
2022-10-23T11:18:04.231Z,994
2022-10-23T11:47:12.840Z,994
2022-10-23T12:16:35.190Z,994
2022-10-23T12:45:57.179Z,993
2022-10-23T13:14:25.129Z,993
2022-10-23T13:43:47.245Z,992
2022-10-23T14:13:16.201Z,992
2022-10-23T14:42:39.413Z,992
2022-10-23T15:12:02.693Z,992
2022-10-23T15:41:26.303Z,991
2022-10-23T16:10:44.828Z,992
2022-10-23T16:40:05.073Z,992
2022-10-23T17:09:27.440Z,992
2022-10-23T17:38:56.933Z,993
2022-10-23T18:08:17.252Z,993
2022-10-23T18:37:42.313Z,994
2022-10-23T19:07:01.461Z,993
2022-10-23T19:36:24.089Z,993
2022-10-23T20:05:07.678Z,993
2022-10-23T20:34:37.873Z,993
2022-10-23T21:03:57.178Z,993
2022-10-23T21:33:20.698Z,993
2022-10-23T22:02:37.046Z,993
2022-10-23T22:31:54.976Z,993
2022-10-23T23:01:16.908Z,993
2022-10-23T23:30:30.935Z,993
2022-10-23T23:59:43.150Z,993
